createdAt,value
2018-09-09T00:00:50.228Z,101932.30
2018-09-09T00:03:18.595Z,101934.02
2018-09-09T00:05:46.977Z,101934.02
2018-09-09T00:08:15.343Z,101935.33
2018-09-09T00:10:43.738Z,101932.70
2018-09-09T00:13:12.099Z,101937.54
2018-09-09T00:15:40.477Z,101938.41
2018-09-09T00:18:08.834Z,101936.63
2018-09-09T00:20:37.218Z,101937.54
2018-09-09T00:23:05.877Z,101933.61
2018-09-09T00:25:34.277Z,101934.48
2018-09-09T00:28:02.903Z,101932.77
2018-09-09T00:30:31.290Z,101934.55
2018-09-09T00:32:59.664Z,101929.72
2018-09-09T00:35:28.061Z,101928.38
2018-09-09T00:37:56.425Z,101922.21
2018-09-09T00:40:24.846Z,101920.41
2018-09-09T00:42:53.242Z,101925.20
2018-09-09T00:45:21.635Z,101926.05
2018-09-09T00:47:50.002Z,101919.03
2018-09-09T00:50:23.850Z,101926.52
2018-09-09T00:54:01.913Z,101928.29
2018-09-09T00:56:30.298Z,101929.16
2018-09-09T00:58:58.661Z,101929.16
2018-09-09T01:01:27.052Z,101926.98
2018-09-09T01:03:55.464Z,101924.37
2018-09-09T01:06:23.920Z,101928.69
2018-09-09T01:08:52.257Z,101920.38
2018-09-09T01:11:20.651Z,101931.28
2018-09-09T01:13:49.021Z,101928.63
2018-09-09T01:16:17.433Z,101925.48
2018-09-09T01:18:45.798Z,101924.08
2018-09-09T01:21:14.206Z,101921.83
2018-09-09T01:23:42.595Z,101924.38
2018-09-09T01:26:11.017Z,101930.88
2018-09-09T01:28:39.386Z,101924.28
2018-09-09T01:31:07.774Z,101923.38
2018-09-09T01:33:36.142Z,101923.77
2018-09-09T01:36:04.539Z,101924.17
2018-09-09T01:38:32.918Z,101922.83
2018-09-09T01:41:01.311Z,101923.70
2018-09-09T01:43:29.682Z,101923.70
2018-09-09T01:45:58.082Z,101925.88
2018-09-09T01:48:26.454Z,101926.75
2018-09-09T01:50:54.846Z,101928.49
2018-09-09T01:53:23.257Z,101936.77
2018-09-09T01:55:51.625Z,101931.07
2018-09-09T01:58:20.023Z,101926.68
2018-09-09T02:00:48.393Z,101924.06
2018-09-09T02:03:16.787Z,101934.45
2018-09-09T02:05:45.162Z,101926.09
2018-09-09T02:08:13.545Z,101925.59
2018-09-09T02:10:41.907Z,101929.03
2018-09-09T02:13:10.298Z,101924.64
2018-09-09T02:15:38.661Z,101928.98
2018-09-09T02:18:07.058Z,101928.95
2018-09-09T02:20:35.431Z,101931.13
2018-09-09T02:23:03.850Z,101929.83
2018-09-09T02:25:32.219Z,101926.30
2018-09-09T02:28:00.609Z,101926.78
2018-09-09T02:30:28.976Z,101922.81
2018-09-09T02:32:57.370Z,101921.52
2018-09-09T02:35:25.739Z,101919.77
2018-09-09T02:37:54.126Z,101924.95
2018-09-09T02:40:22.489Z,101924.05
2018-09-09T02:42:50.875Z,101925.75
2018-09-09T02:45:19.247Z,101931.88
2018-09-09T02:47:47.643Z,101930.14
2018-09-09T02:50:16.015Z,101926.19
2018-09-09T02:52:44.411Z,101928.80
2018-09-09T02:55:12.775Z,101935.37
2018-09-09T02:57:41.171Z,101924.92
2018-09-09T03:00:09.538Z,101928.87
2018-09-09T03:02:37.931Z,101929.78
2018-09-09T03:05:07.957Z,101926.34
2018-09-09T03:07:36.342Z,101924.20
2018-09-09T03:10:04.803Z,101919.84
2018-09-09T03:12:33.181Z,101924.24
2018-09-09T03:15:01.551Z,101923.41
2018-09-09T03:17:29.943Z,101917.34
2018-09-09T03:19:58.389Z,101911.69
2018-09-09T03:22:26.828Z,101918.22
2018-09-09T03:24:55.226Z,101912.16
2018-09-09T03:27:23.699Z,101917.34
2018-09-09T03:29:52.075Z,101911.64
2018-09-09T03:32:20.482Z,101913.78
2018-09-09T03:34:48.950Z,101909.43
2018-09-09T03:37:17.362Z,101906.34
2018-09-09T03:39:45.744Z,101903.66
2018-09-09T03:42:14.142Z,101898.39
2018-09-09T03:44:42.515Z,101894.83
2018-09-09T03:47:10.919Z,101895.23
2018-09-09T03:49:39.287Z,101887.75
2018-09-09T03:52:07.683Z,101883.36
2018-09-09T03:54:36.049Z,101881.18
2018-09-09T03:57:04.423Z,101882.88
2018-09-09T03:59:32.818Z,101884.14
2018-09-09T04:02:01.182Z,101884.11
2018-09-09T04:04:29.563Z,101889.30
2018-09-09T04:06:57.955Z,101884.91
2018-09-09T04:09:26.346Z,101884.42
2018-09-09T04:11:54.705Z,101886.12
2018-09-09T04:14:23.098Z,101886.99
2018-09-09T04:16:51.520Z,101894.79
2018-09-09T04:19:19.909Z,101891.78
2018-09-09T04:21:52.999Z,101900.45
2018-09-09T04:24:22.938Z,101904.36
2018-09-09T04:26:51.306Z,101902.15
2018-09-09T04:29:19.706Z,101907.38
2018-09-09T04:31:48.077Z,101907.36
2018-09-09T04:34:16.465Z,101912.11
2018-09-09T04:36:44.829Z,101915.55
2018-09-09T04:39:14.350Z,101912.50
2018-09-09T04:41:42.908Z,101925.56
2018-09-09T04:44:12.534Z,101922.91
2018-09-09T04:46:40.908Z,101922.04
2018-09-09T04:49:09.915Z,101929.00
2018-09-09T04:51:38.310Z,101942.41
2018-09-09T04:54:06.870Z,101936.32
2018-09-09T04:56:35.245Z,101934.58
2018-09-09T04:59:03.652Z,101939.33
2018-09-09T05:01:32.014Z,101938.84
2018-09-09T05:04:00.402Z,101938.36
2018-09-09T05:06:28.773Z,101945.28
2018-09-09T05:08:57.158Z,101948.76
2018-09-09T05:11:25.806Z,101946.09
2018-09-09T05:13:54.231Z,101949.93
2018-09-09T05:16:22.604Z,101955.48
2018-09-09T05:18:51.002Z,101954.12
2018-09-09T05:21:19.386Z,101955.25
2018-09-09T05:23:47.787Z,101961.67
2018-09-09T05:26:16.175Z,101962.92
2018-09-09T05:28:44.566Z,101964.66
2018-09-09T05:31:12.925Z,101962.44
2018-09-09T05:33:41.315Z,101963.70
2018-09-09T05:36:09.673Z,101963.69
2018-09-09T05:38:38.062Z,101966.30
2018-09-09T05:41:06.434Z,101962.34
2018-09-09T05:43:34.974Z,101962.67
2018-09-09T05:46:03.345Z,101956.48
2018-09-09T05:48:31.735Z,101962.08
2018-09-09T05:51:00.099Z,101958.94
2018-09-09T05:53:28.490Z,101958.45
2018-09-09T05:55:56.858Z,101957.14
2018-09-09T05:58:25.261Z,101963.28
2018-09-09T06:00:53.639Z,101962.94
2018-09-09T06:03:22.035Z,101961.38
2018-09-09T06:05:50.439Z,101965.54
2018-09-09T06:08:18.811Z,101973.27
2018-09-09T06:10:51.366Z,101976.61
2018-09-09T06:13:19.737Z,101966.13
2018-09-09T06:15:48.129Z,101975.97
2018-09-09T06:18:16.517Z,101971.47
2018-09-09T06:20:44.977Z,101971.72
2018-09-09T06:23:13.637Z,101966.77
2018-09-09T06:25:42.038Z,101966.12
2018-09-09T06:28:10.453Z,101974.61
2018-09-09T06:30:38.842Z,101974.84
2018-09-09T06:33:07.563Z,101979.41
2018-09-09T06:35:35.994Z,101981.75
2018-09-09T06:38:04.368Z,101984.55
2018-09-09T06:40:32.763Z,101980.35
2018-09-09T06:43:01.139Z,101971.31
2018-09-09T06:45:29.558Z,101977.61
2018-09-09T06:47:58.037Z,101979.06
2018-09-09T06:50:26.414Z,101980.08
2018-09-09T06:52:54.782Z,101987.20
2018-09-09T06:55:23.223Z,101984.69
2018-09-09T06:57:51.574Z,101987.81
2018-09-09T07:00:19.957Z,101985.27
2018-09-09T07:02:48.313Z,101990.99
2018-09-09T07:05:16.697Z,101989.75
2018-09-09T07:07:45.061Z,101984.55
2018-09-09T07:10:13.445Z,101988.98
2018-09-09T07:12:41.818Z,101996.05
2018-09-09T07:15:10.343Z,101987.33
2018-09-09T07:17:38.717Z,101992.19
2018-09-09T07:20:07.098Z,101996.58
2018-09-09T07:22:35.539Z,101995.76
2018-09-09T07:25:03.909Z,102004.53
2018-09-09T07:27:32.283Z,101996.23
2018-09-09T07:30:00.666Z,101997.11
2018-09-09T07:32:29.047Z,102001.06
2018-09-09T07:34:57.443Z,102001.51
2018-09-09T07:37:25.818Z,102002.41
2018-09-09T07:39:54.231Z,102007.69
2018-09-09T07:42:22.599Z,102005.52
2018-09-09T07:44:50.994Z,102009.45
2018-09-09T07:47:19.373Z,102004.22
2018-09-09T07:49:47.769Z,102002.45
2018-09-09T07:52:16.147Z,102011.67
2018-09-09T07:54:44.543Z,102011.28
2018-09-09T07:57:12.914Z,102005.57
2018-09-09T07:59:41.307Z,102006.45
2018-09-09T08:02:09.675Z,102006.91
2018-09-09T08:04:38.122Z,102008.22
2018-09-09T08:07:06.491Z,102007.35
2018-09-09T08:09:34.858Z,102009.08
2018-09-09T08:12:03.266Z,102008.20
2018-09-09T08:14:31.626Z,102007.29
2018-09-09T08:17:00.010Z,102005.53
2018-09-09T08:19:28.379Z,102007.70
2018-09-09T08:21:56.803Z,102010.79
2018-09-09T08:24:25.179Z,102009.00
2018-09-09T08:26:53.562Z,102009.43
2018-09-09T08:29:21.930Z,102004.99
2018-09-09T08:31:50.331Z,101999.73
2018-09-09T08:34:18.698Z,102002.73
2018-09-09T08:36:47.081Z,101996.13
2018-09-09T08:39:15.455Z,101998.69
2018-09-09T08:41:43.884Z,102002.16
2018-09-09T08:44:12.263Z,102000.80
2018-09-09T08:46:40.657Z,102000.78
2018-09-09T08:49:09.031Z,101997.63
2018-09-09T08:51:38.012Z,102003.75
2018-09-09T08:54:06.394Z,101994.05
2018-09-09T08:56:34.790Z,101993.98
2018-09-09T08:59:03.159Z,101988.23
2018-09-09T09:01:31.556Z,101987.30
2018-09-09T09:03:59.925Z,101991.19
2018-09-09T09:06:28.319Z,101990.21
2018-09-09T09:08:56.695Z,101994.09
2018-09-09T09:11:25.093Z,101994.92
2018-09-09T09:13:53.662Z,101990.02
2018-09-09T09:16:22.161Z,101996.13
2018-09-09T09:18:50.535Z,101996.04
2018-09-09T09:21:18.950Z,101991.54
2018-09-09T09:23:47.315Z,101991.86
2018-09-09T09:26:15.710Z,101993.50
2018-09-09T09:28:44.074Z,101986.80
2018-09-09T09:31:12.490Z,101991.94
2018-09-09T09:33:40.866Z,101991.42
2018-09-09T09:36:09.258Z,101984.21
2018-09-09T09:38:37.635Z,101985.40
2018-09-09T09:41:06.174Z,101985.68
2018-09-09T09:43:34.542Z,101978.44
2018-09-09T09:46:02.939Z,101976.88
2018-09-09T09:48:31.307Z,101974.50
2018-09-09T09:50:59.693Z,101974.83
2018-09-09T09:53:28.100Z,101976.06
2018-09-09T09:55:56.469Z,101970.27
2018-09-09T09:58:24.855Z,101971.08
2018-09-09T10:00:59.931Z,101971.48
2018-09-09T10:03:28.359Z,101968.81
2018-09-09T10:05:56.777Z,101971.06
2018-09-09T10:08:25.166Z,101971.59
2018-09-09T10:10:53.545Z,101971.66
2018-09-09T10:13:21.927Z,101975.27
2018-09-09T10:15:50.294Z,101971.31
2018-09-09T10:18:18.686Z,101973.48
2018-09-09T10:20:47.048Z,101969.52
2018-09-09T10:23:15.462Z,101969.93
2018-09-09T10:25:43.847Z,101963.76
2018-09-09T10:28:12.295Z,101966.81
2018-09-09T10:30:40.679Z,101968.14
2018-09-09T10:33:09.103Z,101976.06
2018-09-09T10:35:37.479Z,101970.69
2018-09-09T10:38:05.921Z,101973.25
2018-09-09T10:40:34.292Z,101976.75
2018-09-09T10:43:02.676Z,101973.20
2018-09-09T10:45:31.052Z,101981.52
2018-09-09T10:47:59.433Z,101977.08
2018-09-09T10:50:27.798Z,101982.31
2018-09-09T10:52:56.178Z,101980.12
2018-09-09T10:55:24.571Z,101977.47
2018-09-09T10:57:52.968Z,101978.75
2018-09-09T11:00:21.342Z,101974.29
2018-09-09T11:02:49.732Z,101970.66
2018-09-09T11:05:18.098Z,101972.74
2018-09-09T11:07:46.571Z,101972.59
2018-09-09T11:10:14.943Z,101974.62
2018-09-09T11:12:43.405Z,101977.98
2018-09-09T11:15:11.742Z,101966.30
2018-09-09T11:17:40.135Z,101968.29
2018-09-09T11:20:08.511Z,101966.78
2018-09-09T11:22:36.917Z,101965.75
2018-09-09T11:25:05.283Z,101968.16
2018-09-09T11:27:33.686Z,101970.16
2018-09-09T11:30:02.148Z,101972.63
2018-09-09T11:32:30.476Z,101972.90
2018-09-09T11:34:58.845Z,101970.49
2018-09-09T11:37:27.230Z,101970.41
2018-09-09T11:39:55.596Z,101968.52
2018-09-09T11:42:23.987Z,101972.00
2018-09-09T11:44:52.355Z,101972.89
2018-09-09T11:47:20.752Z,101968.52
2018-09-09T11:49:49.122Z,101969.86
2018-09-09T11:52:17.506Z,101968.10
2018-09-09T11:54:45.866Z,101964.55
2018-09-09T11:57:14.229Z,101967.59
2018-09-09T11:59:42.623Z,101970.62
2018-09-09T12:02:10.990Z,101967.10
2018-09-09T12:04:39.503Z,101970.11
2018-09-09T12:07:07.911Z,101968.63
2018-09-09T12:09:36.307Z,101966.23
2018-09-09T12:12:04.675Z,101966.11
2018-09-09T12:14:33.071Z,101962.36
2018-09-09T12:17:01.443Z,101956.45
2018-09-09T12:19:29.839Z,101956.22
2018-09-09T12:21:58.247Z,101950.21
2018-09-09T12:24:26.647Z,101955.35
2018-09-09T12:26:55.234Z,101952.63
2018-09-09T12:29:23.636Z,101949.60
2018-09-09T12:31:52.003Z,101951.08
2018-09-09T12:34:20.405Z,101950.70
2018-09-09T12:36:48.774Z,101948.05
2018-09-09T12:39:17.171Z,101950.16
2018-09-09T12:41:45.538Z,101948.71
2018-09-09T12:44:19.396Z,101949.36
2018-09-09T12:46:53.091Z,101951.69
2018-09-09T12:49:21.477Z,101951.38
2018-09-09T12:51:49.834Z,101958.63
2018-09-09T12:54:18.223Z,101952.73
2018-09-09T12:56:46.590Z,101956.69
2018-09-09T12:59:14.987Z,101962.27
2018-09-09T13:01:43.350Z,101953.46
2018-09-09T13:04:11.741Z,101953.00
2018-09-09T13:06:40.115Z,101951.63
2018-09-09T13:09:09.287Z,101950.70
2018-09-09T13:11:37.655Z,101959.11
2018-09-09T13:14:06.055Z,101952.03
2018-09-09T13:16:34.458Z,101947.62
2018-09-09T13:19:02.888Z,101951.14
2018-09-09T13:21:31.287Z,101950.67
2018-09-09T13:23:59.710Z,101952.03
2018-09-09T13:26:28.078Z,101950.77
2018-09-09T13:28:56.470Z,101950.41
2018-09-09T13:31:24.878Z,101950.41
2018-09-09T13:33:53.271Z,101924.18
2018-09-09T13:36:21.635Z,101942.86
2018-09-09T13:38:50.013Z,101940.67
2018-09-09T13:41:18.376Z,101938.08
2018-09-09T13:43:46.771Z,101940.30
2018-09-09T13:46:15.130Z,101934.69
2018-09-09T13:48:43.516Z,101939.29
2018-09-09T13:51:11.890Z,101941.24
2018-09-09T13:53:40.298Z,101945.91
2018-09-09T13:56:08.659Z,101938.52
2018-09-09T13:58:37.024Z,101942.17
2018-09-09T14:01:05.417Z,101943.06
2018-09-09T14:03:33.909Z,101942.70
2018-09-09T14:06:02.307Z,101943.66
2018-09-09T14:08:30.673Z,101937.97
2018-09-09T14:10:59.063Z,101945.04
2018-09-09T14:13:27.439Z,101936.20
2018-09-09T14:15:55.834Z,101947.30
2018-09-09T14:18:24.225Z,101953.96
2018-09-09T14:20:52.618Z,101952.23
2018-09-09T14:23:21.013Z,101951.37
2018-09-09T14:25:49.426Z,101947.32
2018-09-09T14:28:17.792Z,101943.28
2018-09-09T14:30:46.190Z,101945.84
2018-09-09T14:33:14.567Z,101951.16
2018-09-09T14:35:42.955Z,101948.06
2018-09-09T14:38:11.317Z,101953.38
2018-09-09T14:40:39.698Z,101949.45
2018-09-09T14:43:08.108Z,101947.66
2018-09-09T14:45:36.509Z,101944.61
2018-09-09T14:48:04.882Z,101940.56
2018-09-09T14:50:33.269Z,101942.35
2018-09-09T14:53:01.675Z,101943.68
2018-09-09T14:55:30.062Z,101941.89
2018-09-09T14:57:58.434Z,101933.58
2018-09-09T15:00:26.909Z,101937.69
2018-09-09T15:02:55.311Z,101944.35
2018-09-09T15:05:23.698Z,101944.38
2018-09-09T15:07:52.061Z,101943.23
2018-09-09T15:10:20.453Z,101944.20
2018-09-09T15:12:48.831Z,101942.88
2018-09-09T15:15:17.223Z,101942.48
2018-09-09T15:17:45.593Z,101938.13
2018-09-09T15:20:13.981Z,101943.89
2018-09-09T15:22:42.371Z,101938.59
2018-09-09T15:25:10.762Z,101937.63
2018-09-09T15:27:39.134Z,101934.98
2018-09-09T15:30:07.528Z,101934.55
2018-09-09T15:32:35.894Z,101934.66
2018-09-09T15:35:04.307Z,101934.28
2018-09-09T15:37:32.675Z,101935.20
2018-09-09T15:40:01.087Z,101930.39
2018-09-09T15:42:29.461Z,101935.30
2018-09-09T15:44:57.850Z,101932.75
2018-09-09T15:47:26.223Z,101934.11
2018-09-09T15:49:54.827Z,101935.12
2018-09-09T15:52:23.221Z,101931.22
2018-09-09T15:54:51.585Z,101921.30
2018-09-09T15:57:19.970Z,101926.89
2018-09-09T15:59:48.339Z,101925.59
2018-09-09T16:02:16.730Z,101928.33
2018-09-09T16:04:45.104Z,101929.69
2018-09-09T16:07:13.545Z,101925.33
2018-09-09T16:09:41.873Z,101921.86
2018-09-09T16:12:10.263Z,101922.75
2018-09-09T16:14:38.621Z,101928.98
2018-09-09T16:17:07.007Z,101929.88
2018-09-09T16:19:35.370Z,101929.94
2018-09-09T16:22:03.795Z,101932.59
2018-09-09T16:24:32.239Z,101935.70
2018-09-09T16:27:00.583Z,101934.80
2018-09-09T16:29:28.950Z,101934.42
2018-09-09T16:31:57.346Z,101939.33
2018-09-09T16:34:25.790Z,101936.27
2018-09-09T16:36:54.227Z,101934.05
2018-09-09T16:39:22.573Z,101941.60
2018-09-09T16:41:50.971Z,101942.95
2018-09-09T16:44:19.486Z,101939.45
2018-09-09T16:46:47.994Z,101940.73
2018-09-09T16:49:16.310Z,101936.95
2018-09-09T16:51:44.697Z,101940.54
2018-09-09T16:54:13.066Z,101941.84
2018-09-09T16:56:41.467Z,101946.75
2018-09-09T16:59:09.886Z,101945.65
2018-09-09T17:01:38.283Z,101940.77
2018-09-09T17:04:06.693Z,101939.99
2018-09-09T17:06:35.079Z,101944.20
2018-09-09T17:09:03.819Z,101935.76
2018-09-09T17:11:32.219Z,101938.84
2018-09-09T17:14:00.596Z,101943.66
2018-09-09T17:16:29.002Z,101942.27
2018-09-09T17:18:57.376Z,101943.16
2018-09-09T17:21:25.795Z,101945.31
2018-09-09T17:23:54.162Z,101941.70
2018-09-09T17:26:22.559Z,101950.40
2018-09-09T17:28:50.943Z,101947.63
2018-09-09T17:31:19.331Z,101947.91
2018-09-09T17:33:47.859Z,101947.73
2018-09-09T17:36:16.369Z,101951.94
2018-09-09T17:38:44.741Z,101953.92
2018-09-09T17:41:13.131Z,101955.91
2018-09-09T17:43:41.718Z,101956.56
2018-09-09T17:46:10.110Z,101962.91
2018-09-09T17:48:38.478Z,101970.16
2018-09-09T17:51:06.899Z,101977.36
2018-09-09T17:53:36.067Z,101979.30
2018-09-09T17:56:04.706Z,101979.88
2018-09-09T17:58:33.226Z,101987.05
2018-09-09T18:01:01.590Z,101985.43
2018-09-09T18:03:29.986Z,101985.13
2018-09-09T18:05:58.363Z,101983.08
2018-09-09T18:08:26.759Z,101984.98
2018-09-09T18:10:55.146Z,101983.75
2018-09-09T18:13:23.579Z,101986.02
2018-09-09T18:15:51.987Z,101980.86
2018-09-09T18:18:20.379Z,101985.77
2018-09-09T18:20:48.742Z,101984.06
2018-09-09T18:23:17.159Z,101987.19
2018-09-09T18:25:45.826Z,101988.61
2018-09-09T18:28:14.222Z,101988.23
2018-09-09T18:30:42.611Z,101993.56
2018-09-09T18:33:11.139Z,101990.09
2018-09-09T18:35:39.725Z,101992.81
2018-09-09T18:38:08.117Z,101999.87
2018-09-09T18:40:36.487Z,101998.15
2018-09-09T18:43:04.873Z,101996.88
2018-09-09T18:45:33.421Z,102000.88
2018-09-09T18:48:01.949Z,101994.79
2018-09-09T18:50:30.319Z,101993.94
2018-09-09T18:52:58.710Z,101992.20
2018-09-09T18:55:27.095Z,101990.08
2018-09-09T18:57:55.491Z,101991.86
2018-09-09T19:00:23.870Z,101991.47
2018-09-09T19:02:52.263Z,101990.16
2018-09-09T19:05:20.749Z,101991.50
2018-09-09T19:07:49.667Z,101993.72
2018-09-09T19:10:18.331Z,101991.53
2018-09-09T19:12:46.883Z,101994.20
2018-09-09T19:15:15.481Z,101996.82
2018-09-09T19:17:44.017Z,101995.95
2018-09-09T19:20:12.828Z,101995.08
2018-09-09T19:22:41.594Z,102003.84
2018-09-09T19:25:10.023Z,101995.50
2018-09-09T19:27:38.661Z,101996.80
2018-09-09T19:30:07.371Z,101995.89
2018-09-09T19:32:35.923Z,101991.94
2018-09-09T19:35:04.470Z,101999.39
2018-09-09T19:37:33.003Z,101997.62
2018-09-09T19:40:01.580Z,102001.98
2018-09-09T19:42:33.542Z,102002.45
2018-09-09T19:45:02.673Z,101993.66
2018-09-09T19:47:31.325Z,101995.41
2018-09-09T19:49:59.895Z,101995.41
2018-09-09T19:52:28.350Z,102000.20
2018-09-09T19:54:56.813Z,101993.20
2018-09-09T19:57:25.494Z,101999.31
2018-09-09T19:59:54.028Z,101999.75
2018-09-09T20:02:22.510Z,102000.62
2018-09-09T20:04:51.002Z,101998.86
2018-09-09T20:07:19.326Z,102002.35
2018-09-09T20:09:47.751Z,102001.02
2018-09-09T20:12:16.142Z,101995.30
2018-09-09T20:14:44.527Z,102001.86
2018-09-09T20:17:12.895Z,101999.21
2018-09-09T20:19:41.335Z,102001.39
2018-09-09T20:22:10.959Z,101992.17
2018-09-09T20:24:39.349Z,101991.30
2018-09-09T20:27:07.743Z,102000.45
2018-09-09T20:29:36.133Z,101995.19
2018-09-09T20:32:04.517Z,101996.43
2018-09-09T20:34:32.907Z,101995.13
2018-09-09T20:37:01.275Z,101994.20
2018-09-09T20:39:29.749Z,101990.69
2018-09-09T20:41:58.113Z,101995.92
2018-09-09T20:44:26.505Z,101998.53
2018-09-09T20:46:54.865Z,102000.72
2018-09-09T20:49:23.250Z,101995.02
2018-09-09T20:51:51.650Z,101998.08
2018-09-09T20:54:20.034Z,101987.56
2018-09-09T20:56:48.403Z,101994.55
2018-09-09T20:59:16.795Z,101993.67
2018-09-09T21:01:45.180Z,102001.98
2018-09-09T21:04:13.570Z,102000.67
2018-09-09T21:06:41.944Z,102000.23
2018-09-09T21:09:11.974Z,101998.03
2018-09-09T21:11:40.334Z,102004.13
2018-09-09T21:14:09.038Z,102005.89
2018-09-09T21:16:37.432Z,102012.89
2018-09-09T21:19:06.266Z,102005.42
2018-09-09T21:21:34.977Z,102001.48
2018-09-09T21:24:03.445Z,102001.48
2018-09-09T21:26:31.839Z,102003.27
2018-09-09T21:29:00.279Z,101996.68
2018-09-09T21:31:28.679Z,101994.50
2018-09-09T21:33:57.071Z,101993.63
2018-09-09T21:36:25.446Z,101996.69
2018-09-09T21:38:53.838Z,101996.25
2018-09-09T21:41:22.201Z,101995.37
2018-09-09T21:43:50.589Z,102000.64
2018-09-09T21:46:19.063Z,101998.45
2018-09-09T21:48:47.459Z,101992.33
2018-09-09T21:51:15.831Z,101996.73
2018-09-09T21:53:44.239Z,101994.53
2018-09-09T21:56:12.611Z,101991.04
2018-09-09T21:58:41.033Z,101987.97
2018-09-09T22:01:14.879Z,101987.55
2018-09-09T22:03:43.291Z,101984.92
2018-09-09T22:06:11.666Z,101985.33
2018-09-09T22:08:40.046Z,101985.77
2018-09-09T22:11:08.434Z,101977.88
2018-09-09T22:13:36.805Z,101977.88
2018-09-09T22:16:05.203Z,101977.00
2018-09-09T22:18:33.566Z,101975.27
2018-09-09T22:21:01.958Z,101977.45
2018-09-09T22:23:30.364Z,101982.25
2018-09-09T22:25:58.774Z,101981.36
2018-09-09T22:28:27.159Z,101980.92
2018-09-09T22:30:55.542Z,101968.67
2018-09-09T22:33:23.917Z,101970.41
2018-09-09T22:35:52.417Z,101973.47
2018-09-09T22:38:20.795Z,101969.51
2018-09-09T22:40:49.183Z,101974.30
2018-09-09T22:43:17.571Z,101979.11
2018-09-09T22:45:49.023Z,101977.38
2018-09-09T22:48:17.706Z,101975.61
2018-09-09T22:50:46.586Z,101971.66
2018-09-09T22:53:15.141Z,101979.52
2018-09-09T22:55:43.547Z,101978.64
2018-09-09T22:58:11.965Z,101976.02
2018-09-09T23:00:40.365Z,101975.13
2018-09-09T23:03:08.975Z,101976.42
2018-09-09T23:05:37.409Z,101972.91
2018-09-09T23:08:05.799Z,101972.88
2018-09-09T23:10:34.195Z,101975.06
2018-09-09T23:13:02.572Z,101969.78
2018-09-09T23:15:30.974Z,101971.08
2018-09-09T23:17:59.347Z,101971.02
2018-09-09T23:20:27.742Z,101971.88
2018-09-09T23:22:56.139Z,101969.70
2018-09-09T23:25:24.681Z,101972.33
2018-09-09T23:27:53.486Z,101970.98
2018-09-09T23:30:21.883Z,101966.59
2018-09-09T23:32:50.267Z,101966.14
2018-09-09T23:35:18.657Z,101964.80
2018-09-09T23:37:47.022Z,101966.10
2018-09-09T23:40:15.415Z,101970.42
2018-09-09T23:42:43.787Z,101966.41
2018-09-09T23:45:12.180Z,101963.31
2018-09-09T23:47:40.546Z,101954.54
2018-09-09T23:50:08.948Z,101954.08
2018-09-09T23:52:37.325Z,101954.06
2018-09-09T23:55:06.329Z,101953.57
2018-09-09T23:57:34.698Z,101957.02
